Time;durP1;ratioP1;P1;durP2;ratioP2;P2;SDS_P1;SDS_P2;PMS_P1;PMS_P2;Temp;Humidity;BMP_temperature;BMP_pressure;BME280_temperature;BME280_humidity;BME280_pressure;Samples;Min_cycle;Max_cycle;Signal;HPM_P1;HPM_P2
2022/03/30 00:01:50;;;;;;;4.20;1.73;;;6.20;99.90;;;;;;4915556;29;20295;-60
2022/03/30 00:04:19;;;;;;;6.47;2.00;;;6.60;99.90;;;;;;4921188;29;20619;-61
2022/03/30 00:06:48;;;;;;;5.00;1.50;;;6.60;99.90;;;;;;4919843;29;20712;-60
2022/03/30 00:09:16;;;;;;;5.00;1.60;;;6.80;99.90;;;;;;4920432;29;20240;-60
2022/03/30 00:11:45;;;;;;;8.03;2.50;;;6.90;99.90;;;;;;4933778;29;20246;-60
2022/03/30 00:14:13;;;;;;;6.53;2.10;;;6.90;99.90;;;;;;4934082;29;20246;-60
2022/03/30 00:16:41;;;;;;;4.60;1.80;;;6.60;99.90;;;;;;4934069;29;20235;-61
2022/03/30 00:19:10;;;;;;;6.50;2.20;;;6.50;99.90;;;;;;4930641;29;20581;-60
2022/03/30 00:21:39;;;;;;;5.17;1.83;;;6.50;99.90;;;;;;4933936;29;20326;-60
2022/03/30 00:24:08;;;;;;;7.93;2.20;;;6.60;99.90;;;;;;4933965;29;20244;-60
2022/03/30 00:26:37;;;;;;;7.00;1.97;;;6.70;99.90;;;;;;4920807;29;20237;-60
2022/03/30 00:29:06;;;;;;;5.40;2.30;;;6.80;99.90;;;;;;4897691;29;20325;-60
2022/03/30 00:31:34;;;;;;;5.73;1.87;;;6.60;99.90;;;;;;4914847;29;20248;-60
2022/03/30 00:34:03;;;;;;;5.17;1.90;;;6.60;99.90;;;;;;4918032;29;20243;-61
2022/03/30 00:36:31;;;;;;;7.13;2.10;;;6.80;99.90;;;;;;4933610;29;20244;-61
2022/03/30 00:38:59;;;;;;;6.07;2.00;;;6.80;99.90;;;;;;4933055;29;20236;-60
2022/03/30 00:41:30;;;;;;;5.77;1.87;;;6.80;99.90;;;;;;4933429;29;20232;-61
2022/03/30 00:43:58;;;;;;;7.53;2.00;;;6.90;99.90;;;;;;4933855;29;20643;-60
2022/03/30 00:46:27;;;;;;;6.07;2.00;;;6.70;99.90;;;;;;4922580;29;20239;-60
2022/03/30 00:48:55;;;;;;;6.80;2.63;;;6.50;99.90;;;;;;4917097;29;20245;-61
2022/03/30 00:51:23;;;;;;;5.70;1.93;;;6.70;99.90;;;;;;4933544;29;20240;-61
2022/03/30 00:53:51;;;;;;;5.37;1.80;;;6.60;99.90;;;;;;4933830;29;20679;-60
2022/03/30 00:56:19;;;;;;;5.53;1.80;;;6.60;99.90;;;;;;4933739;29;20235;-61
2022/03/30 00:58:50;;;;;;;6.27;1.73;;;6.60;99.90;;;;;;4921939;29;20247;-61
2022/03/30 01:01:19;;;;;;;4.30;1.80;;;6.50;99.90;;;;;;4933740;29;20246;-60
2022/03/30 01:03:47;;;;;;;4.73;1.57;;;6.30;99.90;;;;;;4933285;29;20239;-61
2022/03/30 01:06:16;;;;;;;5.87;1.80;;;6.50;99.90;;;;;;4931434;29;20240;-60
2022/03/30 01:08:46;;;;;;;6.53;2.13;;;6.50;99.90;;;;;;4932858;29;20251;-60
2022/03/30 01:11:15;;;;;;;4.97;1.70;;;6.70;99.90;;;;;;4933446;29;20239;-60
2022/03/30 01:13:43;;;;;;;7.10;1.63;;;6.70;99.90;;;;;;4933119;29;20775;-60
2022/03/30 01:16:33;;;;;;;4.67;1.63;;;6.50;99.90;;;;;;4932944;29;20239;-61
2022/03/30 01:19:05;;;;;;;10.47;2.07;;;6.50;99.90;;;;;;4930128;29;20713;-61
2022/03/30 01:21:35;;;;;;;7.87;2.30;;;6.80;99.90;;;;;;4914163;29;20586;-60
2022/03/30 01:24:04;;;;;;;4.67;1.70;;;6.60;99.90;;;;;;4914227;29;20240;-60
2022/03/30 01:26:33;;;;;;;7.40;1.90;;;6.60;99.90;;;;;;4913992;29;20670;-60
2022/03/30 01:29:01;;;;;;;5.80;1.97;;;6.80;99.90;;;;;;4917103;29;20593;-60
2022/03/30 01:34:15;;;;;;;6.50;2.20;;;6.40;99.90;;;;;;4914011;29;20241;-60
2022/03/30 01:36:45;;;;;;;9.00;2.13;;;6.30;99.90;;;;;;4913958;29;20254;-61
2022/03/30 01:39:13;;;;;;;9.33;2.37;;;6.20;99.90;;;;;;4918775;29;20243;-60
2022/03/30 01:41:42;;;;;;;4.47;1.80;;;6.20;99.90;;;;;;4932773;29;20335;-60
2022/03/30 01:44:10;;;;;;;7.27;2.10;;;6.30;99.90;;;;;;4932726;29;20242;-60
2022/03/30 01:46:39;;;;;;;9.00;2.80;;;6.50;99.90;;;;;;4919535;29;20240;-61
2022/03/30 01:49:07;;;;;;;4.70;1.87;;;6.70;99.90;;;;;;4917815;29;20240;-61
2022/03/30 01:51:35;;;;;;;5.00;1.83;;;6.90;99.90;;;;;;4934060;29;20319;-60
2022/03/30 01:54:04;;;;;;;7.87;1.97;;;6.90;99.90;;;;;;4936478;29;20250;-60
2022/03/30 01:56:33;;;;;;;4.30;1.87;;;7.00;99.90;;;;;;4936538;29;20243;-60
2022/03/30 01:59:01;;;;;;;3.63;1.73;;;6.80;99.90;;;;;;4921274;29;20235;-60
2022/03/30 02:01:29;;;;;;;7.63;2.00;;;6.80;99.90;;;;;;4917360;29;20291;-60
2022/03/30 02:04:00;;;;;;;6.10;1.80;;;6.40;99.90;;;;;;4920452;29;20734;-61
2022/03/30 02:06:28;;;;;;;8.30;2.70;;;6.30;99.90;;;;;;4924576;29;20241;-60
2022/03/30 02:08:56;;;;;;;6.33;1.90;;;6.10;99.90;;;;;;4917350;29;20607;-60
2022/03/30 02:11:26;;;;;;;5.27;1.93;;;6.00;99.90;;;;;;4917118;29;20484;-60
2022/03/30 02:13:55;;;;;;;4.57;1.83;;;6.00;99.90;;;;;;4917292;29;20631;-60
2022/03/30 02:16:24;;;;;;;7.37;1.67;;;5.90;99.90;;;;;;4917478;29;20243;-61
2022/03/30 02:18:52;;;;;;;6.60;2.00;;;5.90;99.90;;;;;;4917061;29;20730;-63
2022/03/30 02:21:21;;;;;;;6.03;1.80;;;6.00;99.90;;;;;;4917507;29;20319;-60
2022/03/30 02:23:49;;;;;;;6.90;1.63;;;5.90;99.90;;;;;;4917061;29;20748;-60
2022/03/30 02:26:18;;;;;;;4.30;1.77;;;5.80;99.90;;;;;;4917258;29;21126;-60
2022/03/30 02:28:51;;;;;;;5.83;1.60;;;5.80;99.90;;;;;;4916703;29;20251;-60
2022/03/30 02:31:19;;;;;;;6.20;2.17;;;5.80;99.90;;;;;;4917216;29;20263;-60
2022/03/30 02:33:48;;;;;;;5.77;1.60;;;6.10;99.90;;;;;;4916937;29;20241;-61
2022/03/30 02:36:16;;;;;;;8.20;2.20;;;6.10;99.90;;;;;;4917025;29;20468;-60
2022/03/30 02:38:45;;;;;;;5.93;1.80;;;6.20;99.90;;;;;;4917582;29;20597;-60
2022/03/30 02:41:14;;;;;;;7.13;1.87;;;6.00;99.90;;;;;;4935907;29;20236;-60
2022/03/30 02:43:42;;;;;;;4.20;1.73;;;6.00;99.90;;;;;;4930926;29;20721;-60
2022/03/30 02:46:11;;;;;;;6.43;1.90;;;6.10;99.90;;;;;;4926354;29;20776;-60
2022/03/30 02:48:40;;;;;;;4.70;1.40;;;6.10;99.90;;;;;;4916846;29;20249;-60
2022/03/30 02:51:09;;;;;;;3.23;1.57;;;6.10;99.90;;;;;;4921620;29;20332;-60
2022/03/30 02:53:37;;;;;;;4.07;1.50;;;6.20;99.90;;;;;;4916445;29;20239;-61
2022/03/30 02:56:06;;;;;;;4.57;1.60;;;6.00;99.90;;;;;;4916679;29;20653;-60
2022/03/30 02:58:35;;;;;;;4.90;1.87;;;5.90;99.90;;;;;;4916391;29;20236;-60
2022/03/30 03:01:03;;;;;;;4.87;2.10;;;5.80;99.90;;;;;;4897863;29;20256;-61
2022/03/30 03:03:33;;;;;;;6.63;1.73;;;5.70;99.90;;;;;;4897320;29;20251;-60
2022/03/30 03:06:01;;;;;;;4.03;1.60;;;5.70;99.90;;;;;;4916323;29;20649;-60
2022/03/30 03:08:29;;;;;;;6.53;2.10;;;6.10;99.90;;;;;;4916263;29;20604;-60
2022/03/30 03:10:57;;;;;;;6.60;1.60;;;6.10;99.90;;;;;;4916196;29;20295;-60
2022/03/30 03:13:25;;;;;;;3.63;1.70;;;5.90;99.90;;;;;;4916526;29;20659;-60
2022/03/30 03:15:54;;;;;;;3.40;1.80;;;5.80;99.90;;;;;;4934056;29;20779;-60
2022/03/30 03:18:22;;;;;;;4.90;1.73;;;5.70;99.90;;;;;;4934379;29;20700;-60
2022/03/30 03:20:51;;;;;;;6.13;2.37;;;5.70;99.90;;;;;;4915950;29;20323;-60
2022/03/30 03:23:19;;;;;;;3.83;1.93;;;5.60;99.90;;;;;;4916442;29;20244;-60
2022/03/30 03:25:48;;;;;;;5.60;2.50;;;5.60;99.90;;;;;;4916149;29;20249;-61
2022/03/30 03:28:17;;;;;;;5.23;1.97;;;5.50;99.90;;;;;;4916000;29;20480;-60
2022/03/30 03:30:45;;;;;;;5.43;1.93;;;5.50;99.90;;;;;;4915875;29;20254;-60
2022/03/30 03:33:15;;;;;;;4.90;2.10;;;5.50;99.90;;;;;;4916119;29;20247;-60
2022/03/30 03:35:43;;;;;;;5.43;2.00;;;5.60;99.90;;;;;;4915553;29;20884;-60
2022/03/30 03:38:12;;;;;;;4.43;1.90;;;5.50;99.90;;;;;;4915986;29;20390;-60
2022/03/30 03:40:41;;;;;;;7.57;2.50;;;5.50;99.90;;;;;;4915432;29;20320;-60
2022/03/30 03:43:10;;;;;;;7.33;1.97;;;5.50;99.90;;;;;;4915984;29;20247;-60
2022/03/30 03:45:38;;;;;;;6.17;2.10;;;5.50;99.90;;;;;;4915601;29;20716;-60
2022/03/30 03:48:07;;;;;;;5.90;2.07;;;5.60;99.90;;;;;;4915818;29;20751;-60
2022/03/30 03:50:35;;;;;;;5.83;2.40;;;5.60;99.90;;;;;;4915445;29;20259;-60
2022/03/30 03:53:03;;;;;;;6.90;2.37;;;5.60;99.90;;;;;;4915375;29;20544;-60
2022/03/30 03:55:36;;;;;;;3.33;1.77;;;5.50;99.90;;;;;;4915411;29;20267;-60
2022/03/30 03:58:05;;;;;;;3.20;2.00;;;5.60;99.90;;;;;;4915445;29;20245;-60
2022/03/30 04:00:34;;;;;;;5.47;2.33;;;5.50;99.90;;;;;;4915155;29;20240;-61
2022/03/30 04:03:03;;;;;;;4.63;2.00;;;5.40;99.90;;;;;;4915466;29;20491;-60
2022/03/30 04:05:32;;;;;;;9.37;2.90;;;5.70;99.90;;;;;;4915080;29;20483;-60
2022/03/30 04:08:00;;;;;;;7.17;2.77;;;5.50;99.90;;;;;;4915456;29;20251;-60
2022/03/30 04:10:29;;;;;;;8.63;2.67;;;5.50;99.90;;;;;;4914814;29;20247;-60
2022/03/30 04:12:58;;;;;;;7.40;2.70;;;5.40;99.90;;;;;;4915175;29;20244;-59
2022/03/30 04:15:26;;;;;;;5.03;2.30;;;5.30;99.90;;;;;;4914343;29;20481;-61
2022/03/30 04:17:57;;;;;;;5.70;2.50;;;5.50;99.90;;;;;;4915176;29;20240;-60
2022/03/30 04:20:26;;;;;;;6.63;2.37;;;5.40;99.90;;;;;;4918735;29;20535;-60
2022/03/30 04:22:54;;;;;;;7.67;3.00;;;5.40;99.90;;;;;;4915269;29;20481;-60
2022/03/30 04:25:23;;;;;;;7.17;2.50;;;5.30;99.90;;;;;;4916818;29;20246;-60
2022/03/30 04:27:52;;;;;;;6.00;2.87;;;5.30;99.90;;;;;;4934302;29;20239;-59
2022/03/30 04:30:23;;;;;;;4.17;2.70;;;5.30;99.90;;;;;;4920352;29;20251;-60
2022/03/30 04:32:51;;;;;;;5.90;2.90;;;5.20;99.90;;;;;;4914944;29;20551;-60
2022/03/30 04:35:24;;;;;;;6.30;2.63;;;5.30;99.90;;;;;;4914861;29;20560;-59
2022/03/30 04:37:54;;;;;;;6.47;3.13;;;5.40;99.90;;;;;;4914701;29;20489;-60
2022/03/30 04:40:23;;;;;;;6.23;3.10;;;5.50;99.90;;;;;;4915061;29;20480;-59
2022/03/30 04:42:52;;;;;;;7.33;3.50;;;5.40;99.90;;;;;;4915017;29;20507;-60
2022/03/30 04:45:22;;;;;;;9.67;3.70;;;5.30;99.90;;;;;;4925201;29;20477;-60
2022/03/30 04:47:53;;;;;;;5.67;3.20;;;5.20;99.90;;;;;;4914818;29;20480;-59
2022/03/30 04:50:26;;;;;;;6.93;3.77;;;5.20;99.90;;;;;;4914187;29;20919;-60
2022/03/30 04:52:56;;;;;;;4.80;2.83;;;5.20;99.90;;;;;;4914679;29;20330;-59
2022/03/30 04:55:24;;;;;;;3.40;2.60;;;5.10;99.90;;;;;;4914375;29;20247;-60
2022/03/30 04:57:52;;;;;;;5.53;2.90;;;4.90;99.90;;;;;;4914915;29;20490;-59
2022/03/30 05:00:23;;;;;;;4.27;2.70;;;4.80;99.90;;;;;;4914612;29;20536;-59
2022/03/30 05:02:51;;;;;;;5.17;2.50;;;4.80;99.90;;;;;;4914732;29;20653;-59
2022/03/30 05:05:19;;;;;;;3.50;2.27;;;4.70;99.90;;;;;;4924853;29;20246;-60
2022/03/30 05:07:47;;;;;;;6.20;2.50;;;4.70;99.90;;;;;;4914079;29;20882;-59
2022/03/30 05:10:16;;;;;;;5.10;2.77;;;4.70;99.90;;;;;;4914142;29;20453;-59
2022/03/30 05:12:44;;;;;;;3.23;2.17;;;4.90;99.90;;;;;;4913792;29;20487;-59
2022/03/30 05:15:12;;;;;;;5.80;2.47;;;4.80;99.90;;;;;;4914215;29;20243;-60
2022/03/30 05:17:44;;;;;;;3.83;2.43;;;4.70;99.90;;;;;;4914017;29;20294;-60
2022/03/30 05:20:13;;;;;;;3.77;2.10;;;4.80;99.90;;;;;;4913882;29;20511;-60
2022/03/30 05:22:42;;;;;;;6.37;2.50;;;4.90;99.90;;;;;;4913974;29;20486;-60
2022/03/30 05:25:11;;;;;;;10.97;2.63;;;4.90;99.90;;;;;;4913990;29;20894;-59
2022/03/30 05:27:40;;;;;;;6.10;2.47;;;4.90;99.90;;;;;;4894983;29;20259;-59
2022/03/30 05:30:10;;;;;;;7.23;2.90;;;5.00;99.90;;;;;;4910080;29;20247;-59
2022/03/30 05:32:38;;;;;;;4.43;2.13;;;5.00;99.90;;;;;;4913782;29;20476;-59
2022/03/30 05:35:08;;;;;;;5.40;2.33;;;4.90;99.90;;;;;;4925721;29;20334;-60
2022/03/30 05:37:36;;;;;;;6.00;3.07;;;5.10;99.90;;;;;;4932877;29;20483;-61
2022/03/30 05:40:05;;;;;;;8.20;2.60;;;5.00;99.90;;;;;;4927875;29;21046;-59
2022/03/30 05:42:33;;;;;;;7.37;2.37;;;5.20;99.90;;;;;;4903029;29;20654;-61
2022/03/30 05:45:02;;;;;;;6.57;2.30;;;4.90;99.90;;;;;;4915495;29;20504;-61
2022/03/30 05:47:30;;;;;;;5.40;2.40;;;4.90;99.90;;;;;;4921472;29;21011;-60
2022/03/30 05:49:58;;;;;;;6.37;2.10;;;4.90;99.90;;;;;;4913701;29;20266;-59
2022/03/30 05:52:27;;;;;;;5.17;2.10;;;4.70;99.90;;;;;;4913642;29;20788;-60
2022/03/30 05:54:56;;;;;;;3.87;1.80;;;4.60;99.90;;;;;;4913812;29;20776;-60
2022/03/30 05:57:24;;;;;;;3.63;1.90;;;4.50;99.90;;;;;;4913507;29;20249;-61
2022/03/30 05:59:52;;;;;;;4.43;2.00;;;4.40;99.90;;;;;;4916682;29;21064;-60
2022/03/30 06:02:20;;;;;;;3.93;1.80;;;4.30;99.90;;;;;;4914801;29;20826;-59
2022/03/30 06:04:50;;;;;;;3.63;1.87;;;4.20;99.90;;;;;;4915675;29;20572;-60
2022/03/30 06:07:19;;;;;;;4.83;2.10;;;4.20;99.90;;;;;;4917411;29;20561;-59
2022/03/30 06:09:48;;;;;;;6.43;2.27;;;4.20;99.90;;;;;;4918019;29;20264;-59
2022/03/30 06:12:16;;;;;;;5.10;2.10;;;4.20;99.90;;;;;;4915148;29;20472;-61
2022/03/30 06:14:45;;;;;;;5.27;2.17;;;4.30;99.90;;;;;;4912408;29;20480;-59
2022/03/30 06:17:17;;;;;;;4.87;2.13;;;4.40;99.90;;;;;;4920839;29;20547;-60
2022/03/30 06:19:49;;;;;;;7.63;2.27;;;4.40;99.90;;;;;;4911675;29;20477;-60
2022/03/30 06:22:17;;;;;;;4.07;2.23;;;4.50;99.90;;;;;;4912265;29;20569;-59
2022/03/30 06:24:47;;;;;;;4.40;2.10;;;4.50;99.90;;;;;;4911696;29;20485;-60
2022/03/30 06:27:17;;;;;;;4.50;1.70;;;4.50;99.90;;;;;;4911714;29;20493;-60
2022/03/30 06:29:45;;;;;;;4.70;1.90;;;4.30;99.90;;;;;;4917521;29;20472;-59
2022/03/30 06:32:13;;;;;;;5.93;1.93;;;4.40;99.90;;;;;;4913368;29;20493;-60
2022/03/30 06:34:41;;;;;;;3.03;1.80;;;4.40;99.90;;;;;;4916693;29;20526;-59
2022/03/30 06:37:09;;;;;;;4.90;1.87;;;4.40;99.90;;;;;;4925191;29;20540;-59
2022/03/30 06:39:37;;;;;;;4.27;1.60;;;4.40;99.90;;;;;;4930856;29;20595;-60
2022/03/30 06:42:10;;;;;;;2.60;1.60;;;4.40;99.90;;;;;;4921160;29;20272;-59
2022/03/30 06:44:40;;;;;;;3.60;1.50;;;4.50;99.90;;;;;;4916574;29;20511;-59
2022/03/30 06:47:08;;;;;;;5.73;1.70;;;4.50;99.90;;;;;;4919933;29;20496;-59
2022/03/30 06:49:38;;;;;;;4.43;1.80;;;4.50;99.90;;;;;;4920574;29;20520;-59
2022/03/30 06:52:07;;;;;;;5.27;1.93;;;4.50;99.90;;;;;;4912560;29;20484;-59
2022/03/30 06:54:35;;;;;;;5.80;2.07;;;4.60;99.90;;;;;;4930141;29;20566;-60
2022/03/30 06:57:05;;;;;;;7.40;1.80;;;4.60;99.90;;;;;;4927553;29;20554;-59
2022/03/30 06:59:33;;;;;;;4.63;2.10;;;4.60;99.90;;;;;;4930432;29;21014;-59
2022/03/30 07:02:03;;;;;;;5.23;1.63;;;4.60;99.90;;;;;;4921324;29;20242;-59
2022/03/30 07:04:34;;;;;;;5.07;1.90;;;4.60;99.90;;;;;;4926440;29;20508;-60
2022/03/30 07:12:35;;;;;;;7.10;2.53;;;4.50;99.90;;;;;;4915915;29;20488;-60
2022/03/30 07:15:04;;;;;;;4.63;2.30;;;4.60;99.90;;;;;;4927238;29;20875;-59
2022/03/30 07:17:36;;;;;;;3.27;2.10;;;4.60;99.90;;;;;;4935038;29;20487;-59
2022/03/30 07:20:05;;;;;;;3.00;2.40;;;4.50;99.90;;;;;;4934981;29;21005;-59
2022/03/30 07:22:33;;;;;;;5.43;2.50;;;4.50;99.90;;;;;;4922623;29;20240;-60
2022/03/30 07:25:01;;;;;;;3.17;2.50;;;4.60;99.90;;;;;;4915955;29;20487;-59
2022/03/30 07:27:31;;;;;;;3.27;2.63;;;4.60;99.90;;;;;;4915848;29;20476;-60
2022/03/30 07:29:59;;;;;;;4.97;2.60;;;4.50;99.90;;;;;;4926323;29;20244;-59
2022/03/30 07:32:27;;;;;;;2.50;2.30;;;4.60;99.90;;;;;;4934702;29;20476;-60
2022/03/30 07:34:56;;;;;;;3.03;2.43;;;4.60;99.90;;;;;;4934776;29;20475;-59
2022/03/30 07:37:24;;;;;;;3.80;2.10;;;4.60;99.90;;;;;;4934766;29;20817;-61
2022/03/30 07:39:53;;;;;;;5.63;2.90;;;4.60;99.90;;;;;;4925371;29;21067;-59
2022/03/30 07:42:21;;;;;;;3.67;2.70;;;4.70;99.90;;;;;;4915840;29;20508;-60
2022/03/30 07:44:49;;;;;;;3.40;2.73;;;4.70;99.90;;;;;;4915766;29;20258;-60
2022/03/30 07:47:18;;;;;;;4.63;2.50;;;4.70;99.90;;;;;;4915723;29;21025;-60
2022/03/30 07:49:47;;;;;;;3.77;2.60;;;4.80;99.90;;;;;;4913839;29;20480;-59
2022/03/30 07:52:17;;;;;;;3.27;2.57;;;4.80;99.90;;;;;;4915772;29;20487;-59
2022/03/30 07:54:45;;;;;;;3.77;2.70;;;4.70;99.90;;;;;;4930733;29;20499;-60
2022/03/30 07:57:13;;;;;;;4.93;2.70;;;4.80;99.90;;;;;;4934553;29;21040;-60
2022/03/30 07:59:41;;;;;;;5.30;2.80;;;4.80;99.90;;;;;;4908968;29;20498;-60
2022/03/30 08:02:10;;;;;;;3.47;2.57;;;4.70;99.90;;;;;;4915548;29;20570;-59
2022/03/30 08:04:38;;;;;;;4.27;2.77;;;4.80;99.90;;;;;;4923040;29;21099;-59
2022/03/30 08:07:06;;;;;;;4.23;3.20;;;4.80;99.90;;;;;;4934359;29;20479;-60
2022/03/30 08:09:36;;;;;;;4.77;4.07;;;4.70;99.90;;;;;;4916378;29;21001;-59
2022/03/30 08:12:05;;;;;;;5.67;3.80;;;4.60;99.90;;;;;;4923199;29;20997;-61
2022/03/30 08:14:33;;;;;;;6.20;3.30;;;4.60;99.90;;;;;;4932743;29;20479;-60
2022/03/30 08:17:01;;;;;;;5.23;3.20;;;4.60;99.90;;;;;;4934126;29;20338;-60
2022/03/30 08:19:29;;;;;;;4.30;3.43;;;4.70;99.90;;;;;;4933585;29;20548;-60
2022/03/30 08:24:46;;;;;;;6.87;3.50;;;4.70;99.90;;;;;;4923430;29;20475;-59
2022/03/30 08:27:16;;;;;;;4.93;3.03;;;4.80;99.90;;;;;;4933799;29;20471;-60
2022/03/30 08:29:45;;;;;;;6.27;3.87;;;4.90;99.90;;;;;;4922420;29;20491;-59
2022/03/30 08:32:15;;;;;;;6.43;4.00;;;4.80;99.90;;;;;;4917977;29;20788;-59
2022/03/30 08:34:44;;;;;;;6.30;4.17;;;4.80;99.90;;;;;;4914562;29;21485;-60
2022/03/30 08:37:13;;;;;;;6.13;3.90;;;4.80;99.90;;;;;;4914762;29;20832;-59
2022/03/30 08:39:41;;;;;;;4.57;3.23;;;4.90;99.90;;;;;;4922763;29;20983;-60
2022/03/30 08:42:14;;;;;;;5.30;3.40;;;4.90;99.90;;;;;;4924614;29;21028;-59
2022/03/30 08:44:42;;;;;;;5.20;3.43;;;4.80;99.90;;;;;;4914424;29;20612;-60
2022/03/30 08:47:12;;;;;;;4.30;2.80;;;4.90;99.90;;;;;;4914636;29;20491;-59
2022/03/30 08:49:42;;;;;;;3.50;2.70;;;4.80;99.90;;;;;;4915927;29;20491;-60
2022/03/30 08:52:11;;;;;;;3.73;3.00;;;4.90;99.90;;;;;;4917697;29;20564;-60
2022/03/30 08:54:44;;;;;;;4.27;2.67;;;4.90;99.90;;;;;;4913524;29;20874;-60
2022/03/30 08:57:14;;;;;;;4.50;2.70;;;5.00;99.90;;;;;;4933517;29;20582;-60
2022/03/30 08:59:57;;;;;;;6.67;3.47;;;5.00;99.90;;;;;;4924268;29;20495;-60
2022/03/30 09:02:34;;;;;;;4.13;3.13;;;5.00;99.90;;;;;;4914122;29;20495;-60
2022/03/30 09:05:15;;;;;;;3.80;3.30;;;5.00;99.90;;;;;;4925442;29;20497;-60
2022/03/30 09:07:45;;;;;;;4.23;3.13;;;5.10;99.90;;;;;;4916311;29;21185;-60
2022/03/30 09:10:15;;;;;;;3.50;2.73;;;5.10;99.90;;;;;;4914180;29;20544;-60
2022/03/30 09:12:47;;;;;;;5.73;2.97;;;5.20;99.90;;;;;;4914208;29;20560;-60
2022/03/30 09:15:15;;;;;;;4.97;2.93;;;5.20;99.90;;;;;;4914266;29;20477;-60
2022/03/30 09:17:58;;;;;;;3.50;2.40;;;5.20;99.90;;;;;;4913837;29;21086;-61
2022/03/30 09:20:35;;;;;;;4.13;2.80;;;5.30;99.90;;;;;;4913611;29;20575;-60
2022/03/30 09:23:04;;;;;;;3.43;2.60;;;5.30;99.90;;;;;;4914021;29;20887;-60
2022/03/30 09:25:49;;;;;;;6.47;2.77;;;5.40;99.90;;;;;;4913955;29;20483;-60
2022/03/30 09:28:22;;;;;;;2.87;2.40;;;5.50;99.90;;;;;;4895182;29;20469;-60
2022/03/30 09:30:51;;;;;;;4.03;2.50;;;5.50;99.90;;;;;;4912544;29;20302;-60
2022/03/30 09:33:21;;;;;;;5.30;2.67;;;5.60;99.90;;;;;;4915523;29;20548;-60
2022/03/30 09:35:49;;;;;;;3.90;2.20;;;5.60;99.90;;;;;;4931261;29;20476;-60
2022/03/30 09:38:20;;;;;;;4.43;2.30;;;5.60;99.90;;;;;;4933126;29;20228;-60
2022/03/30 09:40:50;;;;;;;3.43;2.40;;;5.60;99.90;;;;;;4915947;29;20471;-61
2022/03/30 09:43:23;;;;;;;4.37;2.30;;;5.60;99.90;;;;;;4914420;29;20884;-59
2022/03/30 09:46:03;;;;;;;4.40;2.10;;;5.60;99.90;;;;;;4914126;29;20487;-60
2022/03/30 09:48:34;;;;;;;3.90;2.40;;;5.60;99.90;;;;;;4913817;29;20330;-60
2022/03/30 09:51:06;;;;;;;4.93;1.87;;;5.70;99.90;;;;;;4913948;29;20315;-60
2022/03/30 09:53:36;;;;;;;3.50;2.00;;;5.60;99.90;;;;;;4914238;29;20497;-60
2022/03/30 09:56:06;;;;;;;4.27;2.20;;;5.70;99.90;;;;;;4895022;29;20277;-59
2022/03/30 09:58:38;;;;;;;3.93;2.10;;;5.80;99.90;;;;;;4894869;29;20256;-60
2022/03/30 10:01:15;;;;;;;4.80;2.30;;;5.80;99.90;;;;;;4895071;29;20284;-61
2022/03/30 10:03:50;;;;;;;2.40;2.20;;;5.90;99.90;;;;;;4896240;29;20248;-61
2022/03/30 10:06:21;;;;;;;4.97;2.63;;;6.00;99.90;;;;;;4932944;29;20534;-60
2022/03/30 10:08:51;;;;;;;5.70;2.33;;;6.00;99.90;;;;;;4931175;29;20478;-60
2022/03/30 10:11:21;;;;;;;4.17;2.53;;;6.00;99.90;;;;;;4913869;29;20235;-61
2022/03/30 10:13:53;;;;;;;5.67;2.60;;;5.90;99.90;;;;;;4900983;29;20248;-61
2022/03/30 10:16:40;;;;;;;3.43;2.10;;;6.00;99.90;;;;;;4936415;29;20472;-60
2022/03/30 10:19:09;;;;;;;5.97;2.70;;;6.00;99.90;;;;;;4932186;29;20247;-59
2022/03/30 10:21:46;;;;;;;4.17;2.80;;;6.20;99.90;;;;;;4917051;29;20693;-60
2022/03/30 10:24:39;;;;;;;4.17;3.07;;;6.20;99.90;;;;;;4916945;29;20280;-60
2022/03/30 10:27:13;;;;;;;5.43;3.40;;;6.20;99.90;;;;;;4928491;29;20613;-60
2022/03/30 10:29:50;;;;;;;5.37;3.40;;;6.20;99.90;;;;;;4919492;29;20290;-60
2022/03/30 10:32:21;;;;;;;6.40;4.60;;;6.30;99.90;;;;;;4916805;29;20338;-60
2022/03/30 10:35:00;;;;;;;6.70;5.10;;;6.20;99.90;;;;;;4918822;29;20247;-61
2022/03/30 10:37:30;;;;;;;7.60;5.43;;;6.20;99.90;;;;;;4923575;29;20247;-60
2022/03/30 10:40:10;;;;;;;6.80;5.50;;;6.30;99.90;;;;;;4918995;29;20244;-60
2022/03/30 10:43:02;;;;;;;7.33;4.97;;;6.30;99.90;;;;;;4916205;29;20667;-61
2022/03/30 10:45:43;;;;;;;5.53;5.03;;;6.30;99.90;;;;;;4916955;29;20288;-60
2022/03/30 10:48:14;;;;;;;5.60;5.00;;;6.40;99.90;;;;;;4914173;29;20316;-61
2022/03/30 10:50:45;;;;;;;7.73;5.03;;;6.30;99.90;;;;;;4916438;29;20491;-60
2022/03/30 10:53:36;;;;;;;6.17;5.03;;;6.40;99.90;;;;;;4916907;29;20331;-60
2022/03/30 10:56:28;;;;;;;7.47;5.83;;;6.30;99.90;;;;;;4915388;29;20279;-60
2022/03/30 10:59:15;;;;;;;6.13;4.80;;;6.30;99.90;;;;;;4902066;29;20249;-60
2022/03/30 11:01:46;;;;;;;6.23;5.63;;;6.30;99.90;;;;;;4935407;29;20287;-60
2022/03/30 11:04:26;;;;;;;6.93;5.60;;;6.40;99.90;;;;;;4935848;29;20232;-60
2022/03/30 11:07:40;;;;;;;7.37;6.13;;;6.40;99.90;;;;;;4935758;29;20247;-60
2022/03/30 11:10:18;;;;;;;9.10;6.33;;;6.50;99.90;;;;;;4914655;29;20276;-60
2022/03/30 11:13:02;;;;;;;8.43;6.70;;;6.40;99.90;;;;;;4916738;29;20724;-60
2022/03/30 11:15:32;;;;;;;9.03;7.40;;;6.40;99.90;;;;;;4918243;29;20705;-60
2022/03/30 11:18:18;;;;;;;7.53;6.83;;;6.40;99.90;;;;;;4924451;29;20252;-60
2022/03/30 11:21:15;;;;;;;10.43;7.90;;;6.50;99.90;;;;;;4925162;29;20339;-60
2022/03/30 11:24:02;;;;;;;8.03;6.87;;;6.60;99.90;;;;;;4897876;29;20241;-62
2022/03/30 11:27:18;;;;;;;7.83;7.13;;;6.70;99.90;;;;;;4926917;29;20244;-60
2022/03/30 11:29:52;;;;;;;7.67;6.63;;;6.80;99.90;;;;;;4920755;29;20249;-60
2022/03/30 11:32:55;;;;;;;6.17;5.40;;;6.80;99.90;;;;;;4915713;29;20322;-60
2022/03/30 11:35:28;;;;;;;6.60;5.93;;;6.80;99.90;;;;;;4914703;29;20311;-61
2022/03/30 11:38:23;;;;;;;7.60;6.07;;;6.90;99.90;;;;;;4916464;29;20240;-60
2022/03/30 11:40:58;;;;;;;6.90;5.73;;;7.00;99.90;;;;;;4913804;29;20619;-60
2022/03/30 11:43:27;;;;;;;8.30;5.77;;;7.10;99.90;;;;;;4914678;29;20236;-61
2022/03/30 11:46:02;;;;;;;8.17;6.10;;;7.20;99.90;;;;;;4916398;29;20264;-60
2022/03/30 11:48:37;;;;;;;6.40;5.80;;;7.30;99.90;;;;;;4922993;29;20295;-61
2022/03/30 11:51:12;;;;;;;7.37;5.47;;;7.40;99.90;;;;;;4914713;29;20738;-60
2022/03/30 11:53:40;;;;;;;6.80;5.97;;;7.30;99.90;;;;;;4914354;29;20292;-60
2022/03/30 11:56:10;;;;;;;6.13;4.93;;;7.30;99.90;;;;;;4923629;29;20339;-60
2022/03/30 11:58:39;;;;;;;5.80;5.23;;;7.30;99.90;;;;;;4895984;29;20689;-61
2022/03/30 12:01:09;;;;;;;6.00;5.20;;;7.30;99.90;;;;;;4918840;29;20733;-60
2022/03/30 12:03:37;;;;;;;8.67;5.73;;;7.50;99.90;;;;;;4934243;29;20235;-61
2022/03/30 12:06:09;;;;;;;7.00;5.50;;;7.50;99.90;;;;;;4916228;29;20264;-60
2022/03/30 12:08:43;;;;;;;6.23;5.50;;;7.60;99.90;;;;;;4912544;29;20232;-61
2022/03/30 12:11:11;;;;;;;6.73;4.97;;;7.80;99.90;;;;;;4922931;29;20292;-60
2022/03/30 12:13:40;;;;;;;5.23;4.73;;;7.90;99.90;;;;;;4901083;29;20623;-60
2022/03/30 12:16:10;;;;;;;7.27;5.30;;;7.90;99.90;;;;;;4919663;29;20248;-60
2022/03/30 12:18:43;;;;;;;5.40;4.87;;;8.10;99.90;;;;;;4922600;29;20280;-60
2022/03/30 12:21:15;;;;;;;5.47;4.47;;;8.10;99.90;;;;;;4914776;29;20247;-60
2022/03/30 12:23:59;;;;;;;5.70;4.83;;;8.20;99.90;;;;;;4896680;29;20254;-60
2022/03/30 12:26:50;;;;;;;7.40;5.00;;;8.30;99.90;;;;;;4914657;29;20319;-60
2022/03/30 12:29:18;;;;;;;5.10;4.60;;;8.40;99.90;;;;;;4920605;29;20241;-60
2022/03/30 12:31:53;;;;;;;5.83;3.97;;;8.40;99.90;;;;;;4934113;29;20746;-60
2022/03/30 12:34:23;;;;;;;5.30;3.87;;;8.50;99.90;;;;;;4933485;29;20243;-60
2022/03/30 12:36:54;;;;;;;4.10;3.70;;;8.50;99.90;;;;;;4933690;29;20240;-60
2022/03/30 12:39:25;;;;;;;5.70;3.80;;;8.60;99.90;;;;;;4934024;29;20592;-61
2022/03/30 12:41:58;;;;;;;3.77;3.40;;;8.60;99.90;;;;;;4934148;29;20315;-62
2022/03/30 12:44:29;;;;;;;4.87;3.77;;;8.60;99.90;;;;;;4923136;29;20243;-61
2022/03/30 12:47:01;;;;;;;5.97;3.30;;;8.70;99.90;;;;;;4920410;29;20241;-60
2022/03/30 12:49:38;;;;;;;6.27;3.20;;;8.60;99.90;;;;;;4928390;29;20236;-60
2022/03/30 12:52:08;;;;;;;3.90;3.20;;;8.70;99.90;;;;;;4914830;29;20325;-60
2022/03/30 12:54:37;;;;;;;4.00;3.00;;;8.60;99.90;;;;;;4914467;29;20269;-61
2022/03/30 12:57:05;;;;;;;4.37;2.87;;;8.70;99.90;;;;;;4914517;29;20343;-60
2022/03/30 12:59:34;;;;;;;5.43;3.03;;;8.70;99.90;;;;;;4914118;29;20249;-60
2022/03/30 13:02:18;;;;;;;4.73;2.87;;;8.80;99.90;;;;;;4914480;29;20595;-60
2022/03/30 13:04:51;;;;;;;4.93;3.43;;;8.80;99.90;;;;;;4923033;29;20256;-60
2022/03/30 13:07:22;;;;;;;5.57;3.17;;;8.90;99.90;;;;;;4916590;29;20259;-60
2022/03/30 13:10:09;;;;;;;4.27;3.07;;;9.00;99.90;;;;;;4931403;29;20248;-61
2022/03/30 13:12:42;;;;;;;4.97;3.20;;;8.80;99.90;;;;;;4933301;29;20292;-60
2022/03/30 13:15:13;;;;;;;4.30;3.50;;;8.70;99.90;;;;;;4920749;29;20241;-61
2022/03/30 13:18:01;;;;;;;3.30;3.00;;;8.80;99.90;;;;;;4916110;29;20250;-60
2022/03/30 13:20:31;;;;;;;3.07;2.77;;;8.70;99.90;;;;;;4915104;29;20289;-60
2022/03/30 13:23:01;;;;;;;3.10;2.70;;;8.80;99.90;;;;;;4917015;29;20241;-61
2022/03/30 13:25:34;;;;;;;4.30;2.80;;;8.80;99.90;;;;;;4917318;29;20671;-61
2022/03/30 13:28:05;;;;;;;5.83;3.20;;;8.80;99.90;;;;;;4914297;29;20304;-60
2022/03/30 13:30:35;;;;;;;4.37;2.87;;;8.80;99.90;;;;;;4914660;29;20288;-60